Terminal Aerodrome Forecast
Issued by NWS Billings, MT

Home | Current Version | Previous Version | Graphics & Text | Print | Product List | Glossary On
Versions: 1 2 3 4 5 6 7 8 9 10 11 12 13 14 15 16 17 18 19 20 21 22 23 24 25 26
000
FTUS45 KBYZ 311722
TAFMLS
TAF
KMLS 311722Z 3118/0118 22008KT P6SM BKN200
     FM312000 24015G25KT P6SM SCT120 BKN200
     FM010600 31020G35KT P6SM VCSH BKN080 WS009/32042KT
     FM011000 31020G35KT P6SM BKN080
     FM011600 27025G35KT P6SM SCT080=

USA.gov is the U.S. government's official web portal to all federal, state and local government web resources and services.